Ship Status Report: callsign BARFR04

sailwx.info

Track history (hours):
 
Tides and Currents Weather Stations Pressure Air Temp Water Temp Dewpoint Dewpoint Depression Visibility Wind Speed Wind Dir Waves Ship Positions

Callsign BARFR04 (name unknown)

Last reported at 2019-Nov-14 21:00 UTC. Time now 2019-Nov-14 22:14 UTC.
Position S 19°06' W 169°54'.

Barometer 1013.8 mb

Date/timePositionNaut miles runAvg speedWind from/ knotsBaromVisibWave heightAir tempDewpointWater temp
2019-Nov-14 21:00S 19°06' W 169°54'0 0.0 1013.8
2019-Nov-14 20:00S 19°06' W 169°54'0 0.0 1013.6
2019-Nov-14 18:00S 19°06' W 169°54'0 0.0 1013.2
2019-Nov-14 17:00S 19°06' W 169°54'0 0.0 1013.0
2019-Nov-14 16:00S 19°06' W 169°54'0 0.0 1012.7
2019-Nov-14 15:00S 19°06' W 169°54'0 0.0 1012.7
2019-Nov-14 14:00S 19°06' W 169°54'0 0.0 1012.4
2019-Nov-14 13:00S 19°06' W 169°54'0 0.0 1012.9
2019-Nov-14 12:00S 19°06' W 169°54'0 0.0 1013.2
2019-Nov-14 11:00S 19°06' W 169°54'0 0.0 1013.5
2019-Nov-14 10:00S 19°06' W 169°54'0 0.0 1013.9
2019-Nov-14 09:00S 19°06' W 169°54'0 0.0 1013.7
2019-Nov-14 08:00S 19°06' W 169°54'0 0.0 1013.3
2019-Nov-14 07:00S 19°06' W 169°54'0 0.0 1012.7
2019-Nov-14 06:00S 19°06' W 169°54'0 0.0 1011.9
2019-Nov-14 05:00S 19°06' W 169°54'0 0.0 1011.3
2019-Nov-14 04:00S 19°06' W 169°54'0 0.0 1010.9
2019-Nov-14 03:00S 19°06' W 169°54'0 0.0 1010.7
2019-Nov-14 02:00S 19°06' W 169°54'0 0.0 1010.8
2019-Nov-14 01:00S 19°06' W 169°54'0 0.0 1010.7
2019-Nov-14 00:00S 19°06' W 169°54'0 0.0 1011.1
2019-Nov-13 23:00S 19°06' W 169°54'0 0.0 1011.3
2019-Nov-13 22:00S 19°06' W 169°54'0 0.0 1011.6
2019-Nov-13 21:00S 19°06' W 169°54'0 0.0 1012.3
2019-Nov-13 20:00S 19°06' W 169°54'0 0.0 1012.5
2019-Nov-13 19:00S 19°06' W 169°54'0 0.0 1012.7
2019-Nov-13 18:00S 19°06' W 169°54'0 0.0 1012.4
2019-Nov-13 17:00S 19°06' W 169°54'0 0.0 1011.9
2019-Nov-13 16:00S 19°06' W 169°54'0 0.0 1011.5
2019-Nov-13 15:00S 19°06' W 169°54'0 0.0 1011.3
2019-Nov-13 14:00S 19°06' W 169°54'0 0.0 1011.2
2019-Nov-13 13:00S 19°06' W 169°54'0 0.0 1011.5
2019-Nov-13 12:00S 19°06' W 169°54'0 0.0 1012.0
2019-Nov-13 11:00S 19°06' W 169°54'0 0.0 1012.4
2019-Nov-13 10:00S 19°06' W 169°54'0 0.0 1012.8
2019-Nov-13 09:00S 19°06' W 169°54'0 0.0 1012.4
2019-Nov-13 08:00S 19°06' W 169°54'0 0.0 1012.4
2019-Nov-13 07:00S 19°06' W 169°54'0 0.0 1012.2
2019-Nov-13 06:00S 19°06' W 169°54'0 0.0 1011.6
2019-Nov-13 05:00S 19°06' W 169°54'0 0.0 1011.4
2019-Nov-13 04:00S 19°06' W 169°54'0 0.0 1011.0
2019-Nov-13 03:00S 19°06' W 169°54'0 0.0 1011.4
2019-Nov-13 02:00S 19°06' W 169°54'0 0.0 1011.4
2019-Nov-13 01:00S 19°06' W 169°54'0 0.0 1011.3
2019-Nov-13 00:00S 19°06' W 169°54'0 0.0 1011.8
2019-Nov-12 23:00S 19°06' W 169°54'0 0.0 1012.1
2019-Nov-12 22:00S 19°06' W 169°54'0 0.0 1012.0
2019-Nov-12 21:00S 19°06' W 169°54'0 0.0 1013.3
2019-Nov-12 20:00S 19°06' W 169°54'0 0.0 1013.5
2019-Nov-12 19:00S 19°06' W 169°54'0 0.0 1013.2
2019-Nov-12 18:00S 19°06' W 169°54'0 0.0 1012.8
2019-Nov-12 17:00S 19°06' W 169°54'0 0.0 1011.9
2019-Nov-12 16:00S 19°06' W 169°54'0 0.0 1011.5
2019-Nov-12 15:00S 19°06' W 169°54'0 0.0 1011.2
2019-Nov-12 14:00S 19°06' W 169°54'0 0.0 1011.5
2019-Nov-12 13:00S 19°06' W 169°54'0 0.0 1011.7
2019-Nov-12 12:00S 19°06' W 169°54'0 0.0 1012.0
2019-Nov-12 11:00S 19°06' W 169°54'0 0.0 1013.5
2019-Nov-12 10:00S 19°06' W 169°54'0 0.0 1013.6
2019-Nov-12 09:00S 19°06' W 169°54'0 0.0 1014.1
2019-Nov-12 08:00S 19°06' W 169°54'0 0.0 1014.3
2019-Nov-12 07:00S 19°06' W 169°54'6 6.0 1014.0
2019-Nov-12 06:00S 19°12' W 169°54'6 5.7 1013.8
2019-Nov-12 05:00S 19°12' W 169°48'6 5.7 1013.0
2019-Nov-12 04:00S 19°12' W 169°42'8 8.3 1012.7
2019-Nov-12 03:00S 19°18' W 169°36'6 5.7 1012.7
2019-Nov-12 02:00S 19°18' W 169°30'8 8.2 1013.0
2019-Nov-12 01:00S 19°24' W 169°24'6 5.7 1013.2
2019-Nov-12 00:00S 19°24' W 169°18'6 6.0 1013.5
2019-Nov-11 23:00S 19°30' W 169°18'6 5.7 1014.1
2019-Nov-11 22:00S 19°30' W 169°12'8 8.2 1014.6
2019-Nov-11 21:00S 19°36' W 169°06'6 5.7 1014.9
2019-Nov-11 20:00S 19°36' W 169°00'6 6.0 1015.1
2019-Nov-11 19:00S 19°42' W 169°00'6 5.6 1015.0
2019-Nov-11 18:00S 19°42' W 168°54'6 5.6 1014.4
2019-Nov-11 17:00S 19°42' W 168°48'8 8.2 1014.2
2019-Nov-11 16:00S 19°48' W 168°42'6 5.6 1013.9
2019-Nov-11 15:00S 19°48' W 168°36'6 6.0 1013.6
2019-Nov-11 14:00S 19°54' W 168°36'6 5.6 1013.7
2019-Nov-11 13:00S 19°54' W 168°30'6 5.6 1014.1
2019-Nov-11 12:00S 19°54' W 168°24'0 0.0 1014.8
2019-Nov-11 11:00S 19°54' W 168°24'6 5.6 1015.3
2019-Nov-11 10:00S 19°54' W 168°18'6 5.6 1015.6
2019-Nov-11 09:00S 19°54' W 168°12'0 0.0 1015.7
2019-Nov-11 08:00S 19°54' W 168°12'6 5.6 1015.4
2019-Nov-11 07:00S 19°54' W 168°06'6 5.6 1015.1
2019-Nov-11 06:00S 19°54' W 168°00'8 8.2 1014.2
2019-Nov-11 05:00S 20°00' W 167°54'6 5.6 1013.4
2019-Nov-11 04:00S 20°00' W 167°48'6 5.6 1013.0
2019-Nov-11 03:00S 20°00' W 167°42'0 0.0 1012.4
2019-Nov-11 02:00S 20°00' W 167°42'0 0.0 1012.8
2019-Nov-11 01:00S 20°00' W 167°42'0 0.0 1013.1
2019-Nov-11 00:00S 20°00' W 167°42'0 0.0 1013.4
2019-Nov-10 23:00S 20°00' W 167°42'6 5.6 1014.3
2019-Nov-10 22:00S 20°00' W 167°48'0 0.0 1014.3
2019-Nov-10 21:00S 20°00' W 167°48'8 8.2 1014.9
2019-Nov-10 20:00S 20°06' W 167°42'8 8.2 1015.0
2019-Nov-10 19:00S 20°00' W 167°36'6 5.6 1014.9
2019-Nov-10 18:00S 20°00' W 167°30'8 8.2 1014.8
2019-Nov-10 17:00S 20°06' W 167°24'6 5.6 1014.5
2019-Nov-10 16:00S 20°06' W 167°18'6 5.6 1013.8
2019-Nov-10 15:00S 20°06' W 167°12'6 5.6 1013.7
2019-Nov-10 14:00S 20°06' W 167°06'8 8.2 1013.7
2019-Nov-10 13:00S 20°12' W 167°00'6 5.6 1014.1
2019-Nov-10 12:00S 20°12' W 166°54'6 5.6 1014.7
2019-Nov-10 11:00S 20°12' W 166°48'6 5.6 1015.2
2019-Nov-10 10:00S 20°12' W 166°42'6 5.6 1015.5
2019-Nov-10 09:00S 20°12' W 166°36'1111.3 1015.6
2019-Nov-10 08:00S 20°12' W 166°24'6 5.6 1015.1
2019-Nov-10 07:00S 20°12' W 166°18'6 5.6 1014.8
2019-Nov-10 06:00S 20°12' W 166°12'6 5.6 1014.1
2019-Nov-10 05:00S 20°12' W 166°06'6 5.6 1013.5
2019-Nov-10 04:00S 20°12' W 166°00'6 5.6 1013.2
2019-Nov-10 03:00S 20°12' W 165°54'8 8.2 1012.9
2019-Nov-10 02:00S 20°18' W 165°48'1111.3 1013.2
2019-Nov-10 01:00S 20°18' W 165°36'6 5.6 1013.4
2019-Nov-10 00:00S 20°18' W 165°30'8 8.2 1013.8
2019-Nov-09 23:00S 20°24' W 165°24'6 5.6 1014.0
2019-Nov-09 22:00S 20°24' W 165°18'8 8.2 1014.4
2019-Nov-09 21:00S 20°30' W 165°12'6 5.6 1014.9
2019-Nov-09 20:00S 20°30' W 165°06'8 8.2 1014.9
2019-Nov-09 19:00S 20°36' W 165°00'6 5.6 1014.8
2019-Nov-09 18:00S 20°36' W 164°54'8 8.2 1014.4
2019-Nov-09 17:00S 20°42' W 164°48'8 8.2 1013.9
2019-Nov-09 16:00S 20°48' W 164°42'6 5.6 1013.3
2019-Nov-09 15:00S 20°48' W 164°36'6 5.6 1012.8
2019-Nov-09 14:00S 20°48' W 164°30'6 5.6 1012.7
2019-Nov-09 13:00S 20°48' W 164°24'6 5.6 1012.9
2019-Nov-09 12:00S 20°48' W 164°18'1111.2 1013.6
2019-Nov-09 11:00S 20°48' W 164°06'6 5.6 1014.0
2019-Nov-09 10:00S 20°48' W 164°00'8 8.2 1014.6
2019-Nov-09 09:00S 20°54' W 163°54'6 5.6 1014.8
2019-Nov-09 08:00S 20°54' W 163°48'1111.2 1014.8
2019-Nov-09 07:00S 20°54' W 163°36'6 5.6 1014.4
2019-Nov-09 06:00S 20°54' W 163°30'6 5.6 1014.0
2019-Nov-09 05:00S 20°54' W 163°24'6 5.6 1013.5
2019-Nov-09 04:00S 20°54' W 163°18'6 5.6 1013.2
2019-Nov-09 03:00S 20°54' W 163°12'1312.7 1013.0
2019-Nov-09 02:00S 21°00' W 163°00'6 5.6 1013.0
2019-Nov-09 01:00S 21°00' W 162°54'6 5.6 1013.3
2019-Nov-09 00:00S 21°00' W 162°48'6 5.6 1013.7
2019-Nov-08 23:00S 21°00' W 162°42'6 5.6 1014.4
2019-Nov-08 22:00S 21°00' W 162°36'1312.7 1015.2
2019-Nov-08 21:00S 21°06' W 162°24'6 5.6 1015.6
2019-Nov-08 20:00S 21°06' W 162°18'6 5.6 1015.8
2019-Nov-08 19:00S 21°06' W 162°12'6 5.6 1015.7
2019-Nov-08 18:00S 21°06' W 162°06'6 5.6 1015.6
2019-Nov-08 17:00S 21°06' W 162°00'8 8.2 1015.1
2019-Nov-08 16:00S 21°12' W 161°54'6 5.6 1014.3
2019-Nov-08 15:00S 21°12' W 161°48'6 5.6 1014.1
2019-Nov-08 14:00S 21°12' W 161°42'6 5.6 1013.7
2019-Nov-08 13:00S 21°12' W 161°36'6 5.6 1013.9
2019-Nov-08 12:00S 21°12' W 161°30'6 5.6 1014.3
2019-Nov-08 11:00S 21°12' W 161°24'11 5.6 1015.3
2019-Nov-08 09:00S 21°12' W 161°12'6 5.6 1016.4
2019-Nov-08 08:00S 21°12' W 161°06'1111.2 1016.3
2019-Nov-08 07:00S 21°12' W 160°54'6 5.6 1016.4
2019-Nov-08 06:00S 21°12' W 160°48'6 5.6 1015.8
2019-Nov-08 05:00S 21°12' W 160°42'6 5.6 1015.1
2019-Nov-08 04:00S 21°12' W 160°36'6 5.6 1014.8
2019-Nov-08 03:00S 21°12' W 160°30'6 5.6 1014.4
2019-Nov-08 02:00S 21°12' W 160°24'6 5.6 1014.8
2019-Nov-08 01:00S 21°12' W 160°18'6 5.6 1014.7
2019-Nov-08 00:00S 21°12' W 160°12'6 5.6 1015.2
2019-Nov-07 23:00S 21°12' W 160°06'1111.2 1015.8
2019-Nov-07 22:00S 21°12' W 159°54'0 0.0 1016.3
2019-Nov-07 21:00S 21°12' W 159°54'6 5.6 1016.6
2019-Nov-07 20:00S 21°12' W 159°48'0 0.0 1016.7
2019-Nov-07 19:00S 21°12' W 159°48'0 0.0 1016.7
2019-Nov-07 18:00S 21°12' W 159°48'0 0.0 1016.9
2019-Nov-07 17:00S 21°12' W 159°48'0 0.0 1016.4
2019-Nov-07 16:00S 21°12' W 159°48'0 0.0 1016.0
2019-Nov-07 15:00S 21°12' W 159°48'0 0.0 1015.6
2019-Nov-07 14:00S 21°12' W 159°48'0 0.0 1015.2
2019-Nov-07 13:00S 21°12' W 159°48'0 0.0 1014.9
2019-Nov-07 12:00S 21°12' W 159°48'0 0.0 1014.8
2019-Nov-07 11:00S 21°12' W 159°48'0 0.0 1015.5
2019-Nov-07 10:00S 21°12' W 159°48'0 0.0 1016.3
2019-Nov-07 09:00S 21°12' W 159°48'0 0.0 1016.8
2019-Nov-07 08:00S 21°12' W 159°48'0 0.0 1016.9
2019-Nov-07 07:00S 21°12' W 159°48'0 0.0 1016.5
2019-Nov-07 06:00S 21°12' W 159°48'0 0.0 1016.4
2019-Nov-07 05:00S 21°12' W 159°48'0 0.0 1016.0
2019-Nov-07 04:00S 21°12' W 159°48'0 0.0 1015.5
2019-Nov-07 03:00S 21°12' W 159°48'0 0.0 1014.7
2019-Nov-07 02:00S 21°12' W 159°48'0 0.0 1014.4
2019-Nov-07 01:00S 21°12' W 159°48'0 0.0 1014.7
2019-Nov-07 00:00S 21°12' W 159°48'0 0.0 1014.9
2019-Nov-06 23:00S 21°12' W 159°48'0 0.0 1015.4
2019-Nov-06 22:00S 21°12' W 159°48'0 0.0 1015.9
2019-Nov-06 21:00S 21°12' W 159°48'0 0.0 1016.2
2019-Nov-06 20:00S 21°12' W 159°48'0 0.0 1016.3
2019-Nov-06 19:00S 21°12' W 159°48'0 0.0 1016.3
2019-Nov-06 18:00S 21°12' W 159°48'0 0.0 1016.0
2019-Nov-06 17:00S 21°12' W 159°48'0 0.0 1015.1
2019-Nov-06 16:00S 21°12' W 159°48'0 0.0 1014.7
2019-Nov-06 15:00S 21°12' W 159°48'0 0.0 1014.5
2019-Nov-06 14:00S 21°12' W 159°48'0 0.0 1014.0
2019-Nov-06 13:00S 21°12' W 159°48'0 0.0 1013.7
2019-Nov-06 12:00S 21°12' W 159°48'0 0.0 1013.8
2019-Nov-06 11:00S 21°12' W 159°48'0 0.0 1014.0
2019-Nov-06 10:00S 21°12' W 159°48'0 0.0 1014.6
2019-Nov-06 09:00S 21°12' W 159°48'0 0.0 1014.5
2019-Nov-06 08:00S 21°12' W 159°48'0 0.0 1014.7
2019-Nov-06 07:00S 21°12' W 159°48'0 0.0 1014.8
2019-Nov-06 06:00S 21°12' W 159°48'0 0.0 1014.9
2019-Nov-06 05:00S 21°12' W 159°48'0 0.0 1014.6
2019-Nov-06 04:00S 21°12' W 159°48'0 0.0 1014.4
2019-Nov-06 03:00S 21°12' W 159°48'0 0.0 1013.4
2019-Nov-06 02:00S 21°12' W 159°48'0 0.0 1013.1
2019-Nov-06 01:00S 21°12' W 159°48'0 0.0 1013.4
2019-Nov-06 00:00S 21°12' W 159°48'0 0.0 1013.2
2019-Nov-05 23:00S 21°12' W 159°48'0 0.0 1014.2
2019-Nov-05 22:00S 21°12' W 159°48'0 0.0 1014.3
2019-Nov-05 21:00S 21°12' W 159°48'0 0.0 1014.5
2019-Nov-05 20:00S 21°12' W 159°48'0 0.0 1014.5
2019-Nov-05 19:00S 21°12' W 159°48'0 0.0 1014.7
2019-Nov-05 18:00S 21°12' W 159°48'0 0.0 1014.3
2019-Nov-05 17:00S 21°12' W 159°48'0 0.0 1013.7
2019-Nov-05 16:00S 21°12' W 159°48'0 0.0 1012.6
2019-Nov-05 15:00S 21°12' W 159°48'0 0.0 1012.5
2019-Nov-05 14:00S 21°12' W 159°48'0 0.0 1011.9
2019-Nov-05 13:00S 21°12' W 159°48'0 0.0 1012.6
2019-Nov-05 11:00S 21°12' W 159°48'0 0.0 1011.4
2019-Nov-05 09:00S 21°12' W 159°48'0 0.0 1012.2
2019-Nov-05 08:00S 21°12' W 159°48'0 0.0 1012.3
2019-Nov-05 07:00S 21°12' W 159°48'0 0.0 1012.4
2019-Nov-05 06:00S 21°12' W 159°48'0 0.0 1011.5
2019-Nov-05 05:00S 21°12' W 159°48'0 0.0 1011.1
2019-Nov-05 04:00S 21°12' W 159°48'0 0.0 1010.3
2019-Nov-05 03:00S 21°12' W 159°48'0 0.0 1009.8
2019-Nov-05 02:00S 21°12' W 159°48'0 0.0 1010.1
2019-Nov-05 01:00S 21°12' W 159°48'0 0.0 1010.0
2019-Nov-05 00:00S 21°12' W 159°48'0 0.0 1010.0
2019-Nov-04 23:00S 21°12' W 159°48'0 0.0 1010.7
2019-Nov-04 22:00S 21°12' W 159°48'0 0.0 1011.0
2019-Nov-04 21:00S 21°12' W 159°48'   1011.5
Track history (hours):
 
Tides and Currents Weather Stations Pressure Air Temp Water Temp Dewpoint Dewpoint Depression Visibility Wind Speed Wind Dir Waves Ship Positions

Callsign BARFR04 (name unknown)

Last reported at 2019-Nov-14 21:00 UTC. Time now 2019-Nov-14 22:14 UTC.
Position S 19°06' W 169°54'.

Barometer 1013.8 mb

Date/timePositionNaut miles runAvg speedWind from/ knotsBaromVisibWave heightAir tempDewpointWater temp
2019-Nov-14 21:00S 19°06' W 169°54'0 0.0 1013.8
2019-Nov-14 20:00S 19°06' W 169°54'0 0.0 1013.6
2019-Nov-14 18:00S 19°06' W 169°54'0 0.0 1013.2
2019-Nov-14 17:00S 19°06' W 169°54'0 0.0 1013.0
2019-Nov-14 16:00S 19°06' W 169°54'0 0.0 1012.7
2019-Nov-14 15:00S 19°06' W 169°54'0 0.0 1012.7
2019-Nov-14 14:00S 19°06' W 169°54'0 0.0 1012.4
2019-Nov-14 13:00S 19°06' W 169°54'0 0.0 1012.9
2019-Nov-14 12:00S 19°06' W 169°54'0 0.0 1013.2
2019-Nov-14 11:00S 19°06' W 169°54'0 0.0 1013.5
2019-Nov-14 10:00S 19°06' W 169°54'0 0.0 1013.9
2019-Nov-14 09:00S 19°06' W 169°54'0 0.0 1013.7
2019-Nov-14 08:00S 19°06' W 169°54'0 0.0 1013.3
2019-Nov-14 07:00S 19°06' W 169°54'0 0.0 1012.7
2019-Nov-14 06:00S 19°06' W 169°54'0 0.0 1011.9
2019-Nov-14 05:00S 19°06' W 169°54'0 0.0 1011.3
2019-Nov-14 04:00S 19°06' W 169°54'0 0.0 1010.9
2019-Nov-14 03:00S 19°06' W 169°54'0 0.0 1010.7
2019-Nov-14 02:00S 19°06' W 169°54'0 0.0 1010.8
2019-Nov-14 01:00S 19°06' W 169°54'0 0.0 1010.7
2019-Nov-14 00:00S 19°06' W 169°54'0 0.0 1011.1
2019-Nov-13 23:00S 19°06' W 169°54'0 0.0 1011.3
2019-Nov-13 22:00S 19°06' W 169°54'0 0.0 1011.6
2019-Nov-13 21:00S 19°06' W 169°54'0 0.0 1012.3
2019-Nov-13 20:00S 19°06' W 169°54'0 0.0 1012.5
2019-Nov-13 19:00S 19°06' W 169°54'0 0.0 1012.7
2019-Nov-13 18:00S 19°06' W 169°54'0 0.0 1012.4
2019-Nov-13 17:00S 19°06' W 169°54'0 0.0 1011.9
2019-Nov-13 16:00S 19°06' W 169°54'0 0.0 1011.5
2019-Nov-13 15:00S 19°06' W 169°54'0 0.0 1011.3
2019-Nov-13 14:00S 19°06' W 169°54'0 0.0 1011.2
2019-Nov-13 13:00S 19°06' W 169°54'0 0.0 1011.5
2019-Nov-13 12:00S 19°06' W 169°54'0 0.0 1012.0
2019-Nov-13 11:00S 19°06' W 169°54'0 0.0 1012.4
2019-Nov-13 10:00S 19°06' W 169°54'0 0.0 1012.8
2019-Nov-13 09:00S 19°06' W 169°54'0 0.0 1012.4
2019-Nov-13 08:00S 19°06' W 169°54'0 0.0 1012.4
2019-Nov-13 07:00S 19°06' W 169°54'0 0.0 1012.2
2019-Nov-13 06:00S 19°06' W 169°54'0 0.0 1011.6
2019-Nov-13 05:00S 19°06' W 169°54'0 0.0 1011.4
2019-Nov-13 04:00S 19°06' W 169°54'0 0.0 1011.0
2019-Nov-13 03:00S 19°06' W 169°54'0 0.0 1011.4
2019-Nov-13 02:00S 19°06' W 169°54'0 0.0 1011.4
2019-Nov-13 01:00S 19°06' W 169°54'0 0.0 1011.3
2019-Nov-13 00:00S 19°06' W 169°54'0 0.0 1011.8
2019-Nov-12 23:00S 19°06' W 169°54'0 0.0 1012.1
2019-Nov-12 22:00S 19°06' W 169°54'0 0.0 1012.0
2019-Nov-12 21:00S 19°06' W 169°54'0 0.0 1013.3
2019-Nov-12 20:00S 19°06' W 169°54'0 0.0 1013.5
2019-Nov-12 19:00S 19°06' W 169°54'0 0.0 1013.2
2019-Nov-12 18:00S 19°06' W 169°54'0 0.0 1012.8
2019-Nov-12 17:00S 19°06' W 169°54'0 0.0 1011.9
2019-Nov-12 16:00S 19°06' W 169°54'0 0.0 1011.5
2019-Nov-12 15:00S 19°06' W 169°54'0 0.0 1011.2
2019-Nov-12 14:00S 19°06' W 169°54'0 0.0 1011.5
2019-Nov-12 13:00S 19°06' W 169°54'0 0.0 1011.7
2019-Nov-12 12:00S 19°06' W 169°54'0 0.0 1012.0
2019-Nov-12 11:00S 19°06' W 169°54'0 0.0 1013.5
2019-Nov-12 10:00S 19°06' W 169°54'0 0.0 1013.6
2019-Nov-12 09:00S 19°06' W 169°54'0 0.0 1014.1
2019-Nov-12 08:00S 19°06' W 169°54'0 0.0 1014.3
2019-Nov-12 07:00S 19°06' W 169°54'6 6.0 1014.0
2019-Nov-12 06:00S 19°12' W 169°54'6 5.7 1013.8
2019-Nov-12 05:00S 19°12' W 169°48'6 5.7 1013.0
2019-Nov-12 04:00S 19°12' W 169°42'8 8.3 1012.7
2019-Nov-12 03:00S 19°18' W 169°36'6 5.7 1012.7
2019-Nov-12 02:00S 19°18' W 169°30'8 8.2 1013.0
2019-Nov-12 01:00S 19°24' W 169°24'6 5.7 1013.2
2019-Nov-12 00:00S 19°24' W 169°18'6 6.0 1013.5
2019-Nov-11 23:00S 19°30' W 169°18'6 5.7 1014.1
2019-Nov-11 22:00S 19°30' W 169°12'8 8.2 1014.6
2019-Nov-11 21:00S 19°36' W 169°06'6 5.7 1014.9
2019-Nov-11 20:00S 19°36' W 169°00'6 6.0 1015.1
2019-Nov-11 19:00S 19°42' W 169°00'6 5.6 1015.0
2019-Nov-11 18:00S 19°42' W 168°54'6 5.6 1014.4
2019-Nov-11 17:00S 19°42' W 168°48'8 8.2 1014.2
2019-Nov-11 16:00S 19°48' W 168°42'6 5.6 1013.9
2019-Nov-11 15:00S 19°48' W 168°36'6 6.0 1013.6
2019-Nov-11 14:00S 19°54' W 168°36'6 5.6 1013.7
2019-Nov-11 13:00S 19°54' W 168°30'6 5.6 1014.1
2019-Nov-11 12:00S 19°54' W 168°24'0 0.0 1014.8
2019-Nov-11 11:00S 19°54' W 168°24'6 5.6 1015.3
2019-Nov-11 10:00S 19°54' W 168°18'6 5.6 1015.6
2019-Nov-11 09:00S 19°54' W 168°12'0 0.0 1015.7
2019-Nov-11 08:00S 19°54' W 168°12'6 5.6 1015.4
2019-Nov-11 07:00S 19°54' W 168°06'6 5.6 1015.1
2019-Nov-11 06:00S 19°54' W 168°00'8 8.2 1014.2
2019-Nov-11 05:00S 20°00' W 167°54'6 5.6 1013.4
2019-Nov-11 04:00S 20°00' W 167°48'6 5.6 1013.0
2019-Nov-11 03:00S 20°00' W 167°42'0 0.0 1012.4
2019-Nov-11 02:00S 20°00' W 167°42'0 0.0 1012.8
2019-Nov-11 01:00S 20°00' W 167°42'0 0.0 1013.1
2019-Nov-11 00:00S 20°00' W 167°42'0 0.0 1013.4
2019-Nov-10 23:00S 20°00' W 167°42'6 5.6 1014.3
2019-Nov-10 22:00S 20°00' W 167°48'0 0.0 1014.3
2019-Nov-10 21:00S 20°00' W 167°48'8 8.2 1014.9
2019-Nov-10 20:00S 20°06' W 167°42'8 8.2 1015.0
2019-Nov-10 19:00S 20°00' W 167°36'6 5.6 1014.9
2019-Nov-10 18:00S 20°00' W 167°30'8 8.2 1014.8
2019-Nov-10 17:00S 20°06' W 167°24'6 5.6 1014.5
2019-Nov-10 16:00S 20°06' W 167°18'6 5.6 1013.8
2019-Nov-10 15:00S 20°06' W 167°12'6 5.6 1013.7
2019-Nov-10 14:00S 20°06' W 167°06'8 8.2 1013.7
2019-Nov-10 13:00S 20°12' W 167°00'6 5.6 1014.1
2019-Nov-10 12:00S 20°12' W 166°54'6 5.6 1014.7
2019-Nov-10 11:00S 20°12' W 166°48'6 5.6 1015.2
2019-Nov-10 10:00S 20°12' W 166°42'6 5.6 1015.5
2019-Nov-10 09:00S 20°12' W 166°36'1111.3 1015.6
2019-Nov-10 08:00S 20°12' W 166°24'6 5.6 1015.1
2019-Nov-10 07:00S 20°12' W 166°18'6 5.6 1014.8
2019-Nov-10 06:00S 20°12' W 166°12'6 5.6 1014.1
2019-Nov-10 05:00S 20°12' W 166°06'6 5.6 1013.5
2019-Nov-10 04:00S 20°12' W 166°00'6 5.6 1013.2
2019-Nov-10 03:00S 20°12' W 165°54'8 8.2 1012.9
2019-Nov-10 02:00S 20°18' W 165°48'1111.3 1013.2
2019-Nov-10 01:00S 20°18' W 165°36'6 5.6 1013.4
2019-Nov-10 00:00S 20°18' W 165°30'8 8.2 1013.8
2019-Nov-09 23:00S 20°24' W 165°24'6 5.6 1014.0
2019-Nov-09 22:00S 20°24' W 165°18'8 8.2 1014.4
2019-Nov-09 21:00S 20°30' W 165°12'6 5.6 1014.9
2019-Nov-09 20:00S 20°30' W 165°06'8 8.2 1014.9
2019-Nov-09 19:00S 20°36' W 165°00'6 5.6 1014.8
2019-Nov-09 18:00S 20°36' W 164°54'8 8.2 1014.4
2019-Nov-09 17:00S 20°42' W 164°48'8 8.2 1013.9
2019-Nov-09 16:00S 20°48' W 164°42'6 5.6 1013.3
2019-Nov-09 15:00S 20°48' W 164°36'6 5.6 1012.8
2019-Nov-09 14:00S 20°48' W 164°30'6 5.6 1012.7
2019-Nov-09 13:00S 20°48' W 164°24'6 5.6 1012.9
2019-Nov-09 12:00S 20°48' W 164°18'1111.2 1013.6
2019-Nov-09 11:00S 20°48' W 164°06'6 5.6 1014.0
2019-Nov-09 10:00S 20°48' W 164°00'8 8.2 1014.6
2019-Nov-09 09:00S 20°54' W 163°54'6 5.6 1014.8
2019-Nov-09 08:00S 20°54' W 163°48'1111.2 1014.8
2019-Nov-09 07:00S 20°54' W 163°36'6 5.6 1014.4
2019-Nov-09 06:00S 20°54' W 163°30'6 5.6 1014.0
2019-Nov-09 05:00S 20°54' W 163°24'6 5.6 1013.5
2019-Nov-09 04:00S 20°54' W 163°18'6 5.6 1013.2
2019-Nov-09 03:00S 20°54' W 163°12'1312.7 1013.0
2019-Nov-09 02:00S 21°00' W 163°00'6 5.6 1013.0
2019-Nov-09 01:00S 21°00' W 162°54'6 5.6 1013.3
2019-Nov-09 00:00S 21°00' W 162°48'6 5.6 1013.7
2019-Nov-08 23:00S 21°00' W 162°42'6 5.6 1014.4
2019-Nov-08 22:00S 21°00' W 162°36'1312.7 1015.2
2019-Nov-08 21:00S 21°06' W 162°24'6 5.6 1015.6
2019-Nov-08 20:00S 21°06' W 162°18'6 5.6 1015.8
2019-Nov-08 19:00S 21°06' W 162°12'6 5.6 1015.7
2019-Nov-08 18:00S 21°06' W 162°06'6 5.6 1015.6
2019-Nov-08 17:00S 21°06' W 162°00'8 8.2 1015.1
2019-Nov-08 16:00S 21°12' W 161°54'6 5.6 1014.3
2019-Nov-08 15:00S 21°12' W 161°48'6 5.6 1014.1
2019-Nov-08 14:00S 21°12' W 161°42'6 5.6 1013.7
2019-Nov-08 13:00S 21°12' W 161°36'6 5.6 1013.9
2019-Nov-08 12:00S 21°12' W 161°30'6 5.6 1014.3
2019-Nov-08 11:00S 21°12' W 161°24'11 5.6 1015.3
2019-Nov-08 09:00S 21°12' W 161°12'6 5.6 1016.4
2019-Nov-08 08:00S 21°12' W 161°06'1111.2 1016.3
2019-Nov-08 07:00S 21°12' W 160°54'6 5.6 1016.4
2019-Nov-08 06:00S 21°12' W 160°48'6 5.6 1015.8
2019-Nov-08 05:00S 21°12' W 160°42'6 5.6 1015.1
2019-Nov-08 04:00S 21°12' W 160°36'6 5.6 1014.8
2019-Nov-08 03:00S 21°12' W 160°30'6 5.6 1014.4
2019-Nov-08 02:00S 21°12' W 160°24'6 5.6 1014.8
2019-Nov-08 01:00S 21°12' W 160°18'6 5.6 1014.7
2019-Nov-08 00:00S 21°12' W 160°12'6 5.6 1015.2
2019-Nov-07 23:00S 21°12' W 160°06'1111.2 1015.8
2019-Nov-07 22:00S 21°12' W 159°54'0 0.0 1016.3
2019-Nov-07 21:00S 21°12' W 159°54'6 5.6 1016.6
2019-Nov-07 20:00S 21°12' W 159°48'0 0.0 1016.7
2019-Nov-07 19:00S 21°12' W 159°48'0 0.0 1016.7
2019-Nov-07 18:00S 21°12' W 159°48'0 0.0 1016.9
2019-Nov-07 17:00S 21°12' W 159°48'0 0.0 1016.4
2019-Nov-07 16:00S 21°12' W 159°48'0 0.0 1016.0
2019-Nov-07 15:00S 21°12' W 159°48'0 0.0 1015.6
2019-Nov-07 14:00S 21°12' W 159°48'0 0.0 1015.2
2019-Nov-07 13:00S 21°12' W 159°48'0 0.0 1014.9
2019-Nov-07 12:00S 21°12' W 159°48'0 0.0 1014.8
2019-Nov-07 11:00S 21°12' W 159°48'0 0.0 1015.5
2019-Nov-07 10:00S 21°12' W 159°48'0 0.0 1016.3
2019-Nov-07 09:00S 21°12' W 159°48'0 0.0 1016.8
2019-Nov-07 08:00S 21°12' W 159°48'0 0.0 1016.9
2019-Nov-07 07:00S 21°12' W 159°48'0 0.0 1016.5
2019-Nov-07 06:00S 21°12' W 159°48'0 0.0 1016.4
2019-Nov-07 05:00S 21°12' W 159°48'0 0.0 1016.0
2019-Nov-07 04:00S 21°12' W 159°48'0 0.0 1015.5
2019-Nov-07 03:00S 21°12' W 159°48'0 0.0 1014.7
2019-Nov-07 02:00S 21°12' W 159°48'0 0.0 1014.4
2019-Nov-07 01:00S 21°12' W 159°48'0 0.0 1014.7
2019-Nov-07 00:00S 21°12' W 159°48'0 0.0 1014.9
2019-Nov-06 23:00S 21°12' W 159°48'0 0.0 1015.4
2019-Nov-06 22:00S 21°12' W 159°48'0 0.0 1015.9
2019-Nov-06 21:00S 21°12' W 159°48'0 0.0 1016.2
2019-Nov-06 20:00S 21°12' W 159°48'0 0.0 1016.3
2019-Nov-06 19:00S 21°12' W 159°48'0 0.0 1016.3
2019-Nov-06 18:00S 21°12' W 159°48'0 0.0 1016.0
2019-Nov-06 17:00S 21°12' W 159°48'0 0.0 1015.1
2019-Nov-06 16:00S 21°12' W 159°48'0 0.0 1014.7
2019-Nov-06 15:00S 21°12' W 159°48'0 0.0 1014.5
2019-Nov-06 14:00S 21°12' W 159°48'0 0.0 1014.0
2019-Nov-06 13:00S 21°12' W 159°48'0 0.0 1013.7
2019-Nov-06 12:00S 21°12' W 159°48'0 0.0 1013.8
2019-Nov-06 11:00S 21°12' W 159°48'0 0.0 1014.0
2019-Nov-06 10:00S 21°12' W 159°48'0 0.0 1014.6
2019-Nov-06 09:00S 21°12' W 159°48'0 0.0 1014.5
2019-Nov-06 08:00S 21°12' W 159°48'0 0.0 1014.7
2019-Nov-06 07:00S 21°12' W 159°48'0 0.0 1014.8
2019-Nov-06 06:00S 21°12' W 159°48'0 0.0 1014.9
2019-Nov-06 05:00S 21°12' W 159°48'0 0.0 1014.6
2019-Nov-06 04:00S 21°12' W 159°48'0 0.0 1014.4
2019-Nov-06 03:00S 21°12' W 159°48'0 0.0 1013.4
2019-Nov-06 02:00S 21°12' W 159°48'0 0.0 1013.1
2019-Nov-06 01:00S 21°12' W 159°48'0 0.0 1013.4
2019-Nov-06 00:00S 21°12' W 159°48'0 0.0 1013.2
2019-Nov-05 23:00S 21°12' W 159°48'0 0.0 1014.2
2019-Nov-05 22:00S 21°12' W 159°48'0 0.0 1014.3
2019-Nov-05 21:00S 21°12' W 159°48'0 0.0 1014.5
2019-Nov-05 20:00S 21°12' W 159°48'0 0.0 1014.5
2019-Nov-05 19:00S 21°12' W 159°48'0 0.0 1014.7
2019-Nov-05 18:00S 21°12' W 159°48'0 0.0 1014.3
2019-Nov-05 17:00S 21°12' W 159°48'0 0.0 1013.7
2019-Nov-05 16:00S 21°12' W 159°48'0 0.0 1012.6
2019-Nov-05 15:00S 21°12' W 159°48'0 0.0 1012.5
2019-Nov-05 14:00S 21°12' W 159°48'0 0.0 1011.9
2019-Nov-05 13:00S 21°12' W 159°48'0 0.0 1012.6
2019-Nov-05 11:00S 21°12' W 159°48'0 0.0 1011.4
2019-Nov-05 09:00S 21°12' W 159°48'0 0.0 1012.2
2019-Nov-05 08:00S 21°12' W 159°48'0 0.0 1012.3
2019-Nov-05 07:00S 21°12' W 159°48'0 0.0 1012.4
2019-Nov-05 06:00S 21°12' W 159°48'0 0.0 1011.5
2019-Nov-05 05:00S 21°12' W 159°48'0 0.0 1011.1
2019-Nov-05 04:00S 21°12' W 159°48'0 0.0 1010.3
2019-Nov-05 03:00S 21°12' W 159°48'0 0.0 1009.8
2019-Nov-05 02:00S 21°12' W 159°48'0 0.0 1010.1
2019-Nov-05 01:00S 21°12' W 159°48'0 0.0 1010.0
2019-Nov-05 00:00S 21°12' W 159°48'0 0.0 1010.0
2019-Nov-04 23:00S 21°12' W 159°48'0 0.0 1010.7
2019-Nov-04 22:00S 21°12' W 159°48'0 0.0 1011.0
2019-Nov-04 21:00S 21°12' W 159°48'   1011.5

Dump ship's entire track history